createdAt,value
2017-07-21T00:00:57.876Z,99.99
2017-07-21T00:01:57.786Z,99.99
2017-07-21T00:02:57.834Z,99.99
2017-07-21T00:03:57.838Z,99.99
2017-07-21T00:04:57.808Z,99.99
2017-07-21T00:05:57.800Z,99.99
2017-07-21T00:06:57.779Z,99.99
2017-07-21T00:07:57.808Z,99.99
2017-07-21T00:08:57.786Z,99.99
2017-07-21T00:09:57.806Z,99.99
2017-07-21T00:10:57.761Z,99.99
2017-07-21T00:11:57.787Z,99.99
2017-07-21T00:12:57.814Z,99.99
2017-07-21T00:13:57.803Z,99.99
2017-07-21T00:14:57.860Z,99.99
2017-07-21T00:15:57.887Z,99.99
2017-07-21T00:16:57.882Z,99.99
2017-07-21T00:17:57.815Z,99.99
2017-07-21T00:18:57.860Z,99.99
2017-07-21T00:19:57.817Z,99.99
2017-07-21T00:20:57.798Z,99.99
2017-07-21T00:21:57.819Z,99.99
2017-07-21T00:22:57.847Z,99.81
2017-07-21T00:23:57.886Z,99.81
2017-07-21T00:24:57.862Z,99.81
2017-07-21T00:25:57.816Z,99.92
2017-07-21T00:26:57.850Z,99.99
2017-07-21T00:27:57.853Z,99.99
2017-07-21T00:28:57.853Z,99.94
2017-07-21T00:29:57.847Z,99.92
2017-07-21T00:30:57.820Z,99.99
2017-07-21T00:31:57.850Z,99.99
2017-07-21T00:32:57.854Z,99.96
2017-07-21T00:33:57.797Z,97.93
2017-07-21T00:34:57.793Z,97.50
2017-07-21T00:35:57.855Z,96.61
2017-07-21T00:36:57.806Z,96.36
2017-07-21T00:37:57.857Z,94.96
2017-07-21T00:38:57.797Z,95.42
2017-07-21T00:39:57.799Z,94.48
2017-07-21T00:40:57.798Z,93.32
2017-07-21T00:41:57.796Z,93.43
2017-07-21T00:42:57.801Z,93.43
2017-07-21T00:43:57.863Z,93.08
2017-07-21T00:44:57.799Z,93.26
2017-07-21T00:45:57.824Z,92.84
2017-07-21T00:46:57.936Z,92.16
2017-07-21T00:47:57.833Z,92.14
2017-07-21T00:48:57.906Z,92.16
2017-07-21T00:49:57.841Z,91.90
2017-07-21T00:50:57.849Z,91.63
2017-07-21T00:51:57.837Z,92.73
2017-07-21T00:52:57.847Z,93.16
2017-07-21T00:53:57.814Z,92.84
2017-07-21T00:54:57.873Z,92.62
2017-07-21T00:55:57.865Z,92.62
2017-07-21T00:56:57.833Z,93.43
2017-07-21T00:57:57.871Z,91.79
2017-07-21T00:58:57.909Z,92.08
2017-07-21T00:59:57.871Z,90.69
2017-07-21T01:00:57.803Z,91.38
2017-07-21T01:01:57.872Z,92.08
2017-07-21T01:02:57.838Z,93.26
2017-07-21T01:03:57.869Z,92.05
2017-07-21T01:04:57.839Z,92.95
2017-07-21T01:05:57.894Z,92.43
2017-07-21T01:06:57.876Z,90.53
2017-07-21T01:07:57.821Z,91.11
2017-07-21T01:08:57.917Z,91.55
2017-07-21T01:09:57.887Z,90.74
2017-07-21T01:10:57.857Z,90.50
2017-07-21T01:11:57.917Z,89.72
2017-07-21T01:12:57.853Z,90.93
2017-07-21T01:13:57.854Z,89.75
2017-07-21T01:14:57.863Z,91.09
2017-07-21T01:15:57.853Z,90.74
2017-07-21T01:16:57.884Z,90.85
2017-07-21T01:17:57.904Z,90.55
2017-07-21T01:18:57.895Z,90.69
2017-07-21T01:19:57.880Z,91.84
2017-07-21T01:20:57.953Z,92.35
2017-07-21T01:21:57.854Z,93.02
2017-07-21T01:22:57.895Z,93.48
2017-07-21T01:23:57.831Z,92.16
2017-07-21T01:24:57.829Z,93.59
2017-07-21T01:25:57.899Z,93.67
2017-07-21T01:26:57.898Z,93.62
2017-07-21T01:27:57.900Z,94.07
2017-07-21T01:28:57.920Z,94.45
2017-07-21T01:29:57.885Z,94.40
2017-07-21T01:30:57.838Z,94.59
2017-07-21T01:31:57.883Z,94.50
2017-07-21T01:32:57.901Z,94.72
2017-07-21T01:33:57.928Z,94.88
2017-07-21T01:34:57.886Z,95.28
2017-07-21T01:35:57.888Z,96.04
2017-07-21T01:36:57.870Z,96.83
2017-07-21T01:37:57.899Z,96.96
2017-07-21T01:38:57.867Z,97.21
2017-07-21T01:39:57.924Z,97.28
2017-07-21T01:40:57.926Z,97.36
2017-07-21T01:41:57.856Z,97.88
2017-07-21T01:42:57.904Z,97.93
2017-07-21T01:43:57.873Z,98.12
2017-07-21T01:44:57.876Z,98.85
2017-07-21T01:45:57.896Z,98.55
2017-07-21T01:46:57.929Z,98.80
2017-07-21T01:47:57.931Z,99.07
2017-07-21T01:48:57.904Z,98.96
2017-07-21T01:49:57.938Z,99.07
2017-07-21T01:50:57.898Z,99.23
2017-07-21T01:51:57.904Z,99.70
2017-07-21T01:52:57.880Z,99.83
2017-07-21T01:53:57.846Z,99.96
2017-07-21T01:54:57.939Z,99.99
2017-07-21T01:55:57.902Z,99.99
2017-07-21T01:56:57.879Z,99.99
2017-07-21T01:57:57.910Z,99.99
2017-07-21T01:59:57.915Z,99.99
2017-07-21T02:00:57.924Z,99.99
2017-07-21T02:01:57.883Z,99.99
2017-07-21T02:02:57.847Z,99.99
2017-07-21T02:03:57.887Z,99.99
2017-07-21T02:04:57.910Z,99.99
2017-07-21T02:05:57.898Z,99.99
2017-07-21T02:06:57.848Z,99.99
2017-07-21T02:07:57.834Z,99.99
2017-07-21T02:08:57.867Z,99.99
2017-07-21T02:09:57.849Z,99.99
2017-07-21T02:10:57.834Z,99.99
2017-07-21T02:11:57.837Z,99.99
2017-07-21T02:12:57.853Z,99.99
2017-07-21T02:13:57.904Z,99.99
2017-07-21T02:14:57.927Z,99.99
2017-07-21T02:15:57.856Z,99.99
2017-07-21T02:16:57.894Z,99.99
2017-07-21T02:17:57.880Z,99.99
2017-07-21T02:18:57.984Z,99.99
2017-07-21T02:19:57.932Z,99.99
2017-07-21T02:20:57.931Z,99.99
2017-07-21T02:21:57.897Z,99.99
2017-07-21T02:22:57.888Z,99.99
2017-07-21T02:23:57.893Z,99.99
2017-07-21T02:24:57.895Z,99.99
2017-07-21T02:25:57.916Z,99.99
2017-07-21T02:26:57.855Z,99.99
2017-07-21T02:27:57.857Z,99.99
2017-07-21T02:28:57.921Z,99.99
2017-07-21T02:29:57.886Z,99.99
2017-07-21T02:30:57.918Z,99.99
2017-07-21T02:31:57.886Z,99.99
2017-07-21T02:32:57.920Z,99.99
2017-07-21T02:33:57.889Z,99.99
2017-07-21T02:34:57.923Z,99.99
2017-07-21T02:35:57.922Z,99.99
2017-07-21T02:36:57.893Z,99.99
2017-07-21T02:37:57.865Z,99.99
2017-07-21T02:38:57.931Z,99.99
2017-07-21T02:39:57.868Z,99.99
2017-07-21T02:40:57.874Z,99.99
2017-07-21T02:41:57.864Z,99.99
2017-07-21T02:42:57.890Z,99.99
2017-07-21T02:43:57.927Z,99.99
2017-07-21T02:44:57.867Z,99.99
2017-07-21T02:45:57.948Z,99.99
2017-07-21T02:46:57.941Z,99.99
2017-07-21T02:47:57.944Z,99.99
2017-07-21T02:48:57.929Z,99.99
2017-07-21T02:49:57.945Z,99.99
2017-07-21T02:50:57.971Z,99.99
2017-07-21T02:51:57.917Z,99.99
2017-07-21T02:52:57.880Z,99.99
2017-07-21T02:53:57.909Z,99.99
2017-07-21T02:54:57.908Z,99.99
2017-07-21T02:55:57.916Z,99.99
2017-07-21T02:56:57.875Z,99.99
2017-07-21T02:57:57.934Z,99.99
2017-07-21T02:58:57.900Z,99.99
2017-07-21T02:59:57.911Z,99.99
2017-07-21T03:00:57.942Z,99.99
2017-07-21T03:01:57.938Z,99.99
2017-07-21T03:02:57.877Z,99.99
2017-07-21T03:03:57.877Z,99.99
2017-07-21T03:04:57.881Z,99.99
2017-07-21T03:05:57.911Z,99.99
2017-07-21T03:06:57.950Z,99.99
2017-07-21T03:07:57.912Z,99.99
2017-07-21T03:08:57.910Z,99.99
2017-07-21T03:09:57.882Z,99.99
2017-07-21T03:10:57.885Z,99.99
2017-07-21T03:11:57.881Z,99.99
2017-07-21T03:12:57.888Z,99.99
2017-07-21T03:13:57.945Z,99.99
2017-07-21T03:14:57.883Z,99.99
2017-07-21T03:15:57.927Z,99.99
2017-07-21T03:16:57.959Z,99.99
2017-07-21T03:17:57.983Z,99.99
2017-07-21T03:18:58.059Z,99.99
2017-07-21T03:19:58.033Z,99.99
2017-07-21T03:20:57.946Z,99.99
2017-07-21T03:21:57.893Z,99.99
2017-07-21T03:22:57.932Z,99.99
2017-07-21T03:23:57.906Z,99.99
2017-07-21T03:24:57.895Z,99.99
2017-07-21T03:25:57.904Z,99.99
2017-07-21T03:26:57.908Z,99.99
2017-07-21T03:27:57.910Z,99.99
2017-07-21T03:28:58.026Z,99.99
2017-07-21T03:29:57.961Z,99.99
2017-07-21T03:30:57.961Z,99.99
2017-07-21T03:31:57.956Z,99.99
2017-07-21T03:32:57.976Z,99.99
2017-07-21T03:33:57.958Z,99.99
2017-07-21T03:34:57.933Z,99.99
2017-07-21T03:35:57.902Z,99.99
2017-07-21T03:36:57.928Z,99.99
2017-07-21T03:37:57.961Z,99.99
2017-07-21T03:38:57.928Z,99.99
2017-07-21T03:39:57.928Z,99.99
2017-07-21T03:40:57.961Z,99.99
2017-07-21T03:41:57.901Z,99.99
2017-07-21T03:42:57.960Z,99.99
2017-07-21T03:43:57.933Z,99.99
2017-07-21T03:44:57.906Z,99.99
2017-07-21T03:45:57.906Z,99.99
2017-07-21T03:46:57.904Z,99.99
2017-07-21T03:47:57.970Z,99.99
2017-07-21T03:48:57.933Z,99.99
2017-07-21T03:49:57.964Z,99.99
2017-07-21T03:50:57.916Z,99.99
2017-07-21T03:51:57.905Z,99.99
2017-07-21T03:52:57.930Z,99.99
2017-07-21T03:53:57.935Z,99.99
2017-07-21T03:54:57.978Z,99.99
2017-07-21T03:55:58.005Z,99.99
2017-07-21T03:56:57.997Z,99.99
2017-07-21T03:57:57.941Z,99.99
2017-07-21T03:58:57.947Z,99.99
2017-07-21T03:59:57.914Z,99.99
2017-07-21T04:00:57.989Z,99.99
2017-07-21T04:01:58.005Z,99.99
2017-07-21T04:02:58.013Z,99.99
2017-07-21T04:03:57.919Z,99.99
2017-07-21T04:04:57.975Z,99.99
2017-07-21T04:05:58.020Z,99.99
2017-07-21T04:06:57.979Z,99.99
2017-07-21T04:07:57.987Z,99.99
2017-07-21T04:08:57.984Z,99.99
2017-07-21T04:09:57.948Z,99.99
2017-07-21T04:10:57.960Z,99.99
2017-07-21T04:11:57.922Z,99.99
2017-07-21T04:12:57.991Z,99.99
2017-07-21T04:13:57.951Z,99.99
2017-07-21T04:14:57.954Z,99.99
2017-07-21T04:15:58.009Z,99.99
2017-07-21T04:16:57.924Z,99.99
2017-07-21T04:17:58.005Z,99.99
2017-07-21T04:18:57.933Z,99.99
2017-07-21T04:19:58.003Z,99.99
2017-07-21T04:20:57.933Z,99.99
2017-07-21T04:21:58.000Z,99.99
2017-07-21T04:22:57.978Z,99.99
2017-07-21T04:23:57.931Z,99.99
2017-07-21T04:24:57.966Z,99.99
2017-07-21T04:25:57.960Z,99.99
2017-07-21T04:26:57.970Z,99.99
2017-07-21T04:27:57.956Z,99.99
2017-07-21T04:28:57.964Z,99.99
2017-07-21T04:29:57.934Z,99.99
2017-07-21T04:30:58.007Z,99.99
2017-07-21T04:31:57.988Z,99.99
2017-07-21T04:32:57.969Z,99.99
2017-07-21T04:33:57.939Z,99.99
2017-07-21T04:34:58.028Z,99.99
2017-07-21T04:35:57.968Z,99.99
2017-07-21T04:36:58.021Z,99.99
2017-07-21T04:37:57.967Z,99.99
2017-07-21T04:38:57.998Z,99.99
2017-07-21T04:39:58.013Z,99.99
2017-07-21T04:40:57.944Z,99.99
2017-07-21T04:41:58.046Z,99.99
2017-07-21T04:42:58.014Z,99.99
2017-07-21T04:43:58.006Z,99.99
2017-07-21T04:44:57.975Z,99.99
2017-07-21T04:45:57.974Z,99.99
2017-07-21T04:46:57.944Z,99.99
2017-07-21T04:47:57.957Z,99.99
2017-07-21T04:48:57.964Z,99.99
2017-07-21T04:49:57.961Z,99.99
2017-07-21T04:50:57.971Z,99.99
2017-07-21T04:51:57.953Z,99.99
2017-07-21T04:52:57.951Z,99.99
2017-07-21T04:53:58.212Z,99.99
2017-07-21T04:54:57.922Z,99.99
2017-07-21T04:55:57.965Z,99.99
2017-07-21T04:56:58.086Z,99.99
2017-07-21T04:57:57.939Z,99.99
2017-07-21T04:58:57.980Z,99.99
2017-07-21T04:59:57.948Z,99.99
2017-07-21T05:00:57.979Z,99.99
2017-07-21T05:01:57.957Z,99.99
2017-07-21T05:02:58.011Z,99.99
2017-07-21T05:03:58.010Z,99.99
2017-07-21T05:04:58.026Z,99.99
2017-07-21T05:05:57.978Z,99.99
2017-07-21T05:06:57.984Z,99.99
2017-07-21T05:07:58.041Z,99.86
2017-07-21T05:08:57.965Z,99.86
2017-07-21T05:09:57.993Z,99.67
2017-07-21T05:10:57.965Z,99.04
2017-07-21T05:11:57.962Z,98.53
2017-07-21T05:12:58.016Z,98.64
2017-07-21T05:13:57.957Z,97.69
2017-07-21T05:14:58.056Z,97.77
2017-07-21T05:15:58.025Z,97.36
2017-07-21T05:16:57.977Z,97.26
2017-07-21T05:17:57.982Z,97.53
2017-07-21T05:18:57.949Z,97.77
2017-07-21T05:19:57.980Z,97.74
2017-07-21T05:20:57.952Z,96.15
2017-07-21T05:21:57.984Z,96.53
2017-07-21T05:22:58.019Z,97.45
2017-07-21T05:23:57.985Z,96.09
2017-07-21T05:24:57.951Z,95.66
2017-07-21T05:25:57.997Z,96.42
2017-07-21T05:26:58.024Z,95.50
2017-07-21T05:27:57.955Z,95.88
2017-07-21T05:28:57.956Z,96.15
2017-07-21T05:29:58.018Z,96.99
2017-07-21T05:30:58.023Z,97.18
2017-07-21T05:31:58.020Z,97.39
2017-07-21T05:32:57.985Z,96.88
2017-07-21T05:33:57.964Z,96.80
2017-07-21T05:34:57.959Z,96.88
2017-07-21T05:35:57.960Z,97.26
2017-07-21T05:36:57.969Z,97.47
2017-07-21T05:37:57.971Z,97.45
2017-07-21T05:38:57.970Z,97.12
2017-07-21T05:39:57.994Z,96.39
2017-07-21T05:40:57.974Z,96.58
2017-07-21T05:41:57.989Z,96.28
2017-07-21T05:42:58.044Z,96.31
2017-07-21T05:43:58.041Z,96.66
2017-07-21T05:44:57.970Z,97.50
2017-07-21T05:45:57.948Z,96.31
2017-07-21T05:46:58.072Z,96.53
2017-07-21T05:47:58.009Z,96.55
2017-07-21T05:48:57.998Z,96.85
2017-07-21T05:49:58.069Z,96.88
2017-07-21T05:50:58.015Z,96.85
2017-07-21T05:51:58.051Z,96.42
2017-07-21T05:52:57.982Z,96.53
2017-07-21T05:53:58.011Z,97.07
2017-07-21T05:54:57.980Z,96.91
2017-07-21T05:55:58.073Z,96.74
2017-07-21T05:56:57.979Z,96.74
2017-07-21T05:57:58.007Z,95.88
2017-07-21T05:58:58.024Z,95.42
2017-07-21T05:59:58.076Z,94.88
2017-07-21T06:00:58.040Z,94.72
2017-07-21T06:01:57.983Z,93.43
2017-07-21T06:02:57.986Z,93.35
2017-07-21T06:03:57.986Z,92.27
2017-07-21T06:04:57.985Z,92.01
2017-07-21T06:05:58.044Z,91.25
2017-07-21T06:06:57.989Z,90.63
2017-07-21T06:07:57.962Z,90.07
2017-07-21T06:08:57.924Z,88.04
2017-07-21T06:09:58.006Z,86.65
2017-07-21T06:10:57.951Z,88.01
2017-07-21T06:11:57.985Z,86.36
2017-07-21T06:12:57.969Z,85.99
2017-07-21T06:13:58.037Z,84.81
2017-07-21T06:14:58.004Z,84.50
2017-07-21T06:15:57.987Z,85.19
2017-07-21T06:16:58.017Z,84.95
2017-07-21T06:17:58.016Z,82.51
2017-07-21T06:18:58.016Z,82.75
2017-07-21T06:19:57.989Z,83.86
2017-07-21T06:20:57.986Z,83.33
2017-07-21T06:21:57.992Z,83.62
2017-07-21T06:22:58.019Z,83.51
2017-07-21T06:23:58.076Z,83.57
2017-07-21T06:24:57.985Z,85.61
2017-07-21T06:25:58.024Z,86.17
2017-07-21T06:26:57.989Z,85.32
2017-07-21T06:27:58.023Z,84.15
2017-07-21T06:28:58.057Z,85.64
2017-07-21T06:29:58.054Z,85.00
2017-07-21T06:30:58.055Z,82.06
2017-07-21T06:31:58.025Z,85.40
2017-07-21T06:32:58.024Z,81.79
2017-07-21T06:33:58.059Z,83.94
2017-07-21T06:34:58.000Z,84.44
2017-07-21T06:35:58.059Z,84.84
2017-07-21T06:36:58.077Z,83.65
2017-07-21T06:37:58.013Z,86.01
2017-07-21T06:38:58.029Z,82.59
2017-07-21T06:39:58.026Z,81.37
2017-07-21T06:40:58.016Z,80.79
2017-07-21T06:41:58.026Z,83.99
2017-07-21T06:42:58.011Z,83.04
2017-07-21T06:43:58.036Z,82.93
2017-07-21T06:44:58.023Z,81.40
2017-07-21T06:45:58.018Z,83.06
2017-07-21T06:46:58.104Z,83.94
2017-07-21T06:47:58.072Z,83.83
2017-07-21T06:48:58.100Z,79.13
2017-07-21T06:49:58.013Z,79.20
2017-07-21T06:50:58.049Z,79.91
2017-07-21T06:51:58.012Z,80.94
2017-07-21T06:52:58.040Z,79.25
2017-07-21T06:53:58.099Z,81.10
2017-07-21T06:54:58.080Z,80.57
2017-07-21T06:55:58.055Z,80.92
2017-07-21T06:56:58.130Z,80.49
2017-07-21T06:57:58.004Z,79.07
2017-07-21T06:58:58.075Z,80.31
2017-07-21T06:59:58.074Z,78.86
2017-07-21T07:00:58.008Z,77.57
2017-07-21T07:01:58.041Z,78.39
2017-07-21T07:02:58.072Z,78.47
2017-07-21T07:03:58.039Z,79.10
2017-07-21T07:04:58.076Z,80.39
2017-07-21T07:05:58.048Z,79.28
2017-07-21T07:06:58.084Z,78.39
2017-07-21T07:07:58.045Z,77.20
2017-07-21T07:08:58.045Z,77.86
2017-07-21T07:09:58.002Z,77.81
2017-07-21T07:10:58.045Z,78.12
2017-07-21T07:11:58.047Z,80.57
2017-07-21T07:12:58.039Z,80.21
2017-07-21T07:13:57.999Z,78.07
2017-07-21T07:14:58.048Z,81.08
2017-07-21T07:15:58.034Z,78.97
2017-07-21T07:16:58.157Z,80.41
2017-07-21T07:17:58.066Z,80.39
2017-07-21T07:18:58.035Z,78.65
2017-07-21T07:19:58.053Z,80.26
2017-07-21T07:20:58.066Z,77.57
2017-07-21T07:21:58.124Z,77.17
2017-07-21T07:22:58.035Z,78.09
2017-07-21T07:23:58.136Z,78.67
2017-07-21T07:24:58.032Z,80.05
2017-07-21T07:25:58.033Z,78.41
2017-07-21T07:26:58.026Z,78.99
2017-07-21T07:27:58.087Z,77.91
2017-07-21T07:28:58.024Z,76.91
2017-07-21T07:29:58.085Z,78.23
2017-07-21T07:30:58.125Z,76.67
2017-07-21T07:31:58.054Z,76.99
2017-07-21T07:32:58.025Z,76.62
2017-07-21T07:33:58.060Z,76.28
2017-07-21T07:34:58.056Z,77.44
2017-07-21T07:35:58.090Z,75.39
2017-07-21T07:36:58.068Z,74.66
2017-07-21T07:37:58.062Z,78.23
2017-07-21T07:38:58.061Z,74.97
2017-07-21T07:39:58.032Z,75.76
2017-07-21T07:40:58.101Z,73.50
2017-07-21T07:41:58.097Z,72.85
2017-07-21T07:43:58.099Z,73.48
2017-07-21T07:44:58.221Z,71.83
2017-07-21T07:45:58.100Z,74.13
2017-07-21T07:46:58.100Z,69.26
2017-07-21T07:47:58.100Z,74.73
2017-07-21T07:48:58.074Z,72.46
2017-07-21T07:49:58.075Z,74.34
2017-07-21T07:50:58.101Z,71.83
2017-07-21T07:51:58.103Z,76.70
2017-07-21T07:52:58.073Z,69.67
2017-07-21T07:53:58.072Z,74.13
2017-07-21T07:54:58.104Z,72.75
2017-07-21T07:55:58.104Z,73.66
2017-07-21T07:56:58.122Z,74.89
2017-07-21T07:57:58.117Z,74.26
2017-07-21T07:58:58.078Z,73.19
2017-07-21T07:59:58.087Z,74.92
2017-07-21T08:00:58.126Z,73.58
2017-07-21T08:01:58.121Z,70.97
2017-07-21T08:02:58.092Z,68.79
2017-07-21T08:03:58.110Z,68.99
2017-07-21T08:04:58.054Z,69.12
2017-07-21T08:05:58.063Z,68.63
2017-07-21T08:06:58.089Z,67.83
2017-07-21T08:07:58.125Z,70.21
2017-07-21T08:08:58.155Z,71.23
2017-07-21T08:09:58.089Z,70.60
2017-07-21T08:10:58.064Z,68.87
2017-07-21T08:11:58.126Z,69.07
2017-07-21T08:12:58.070Z,69.26
2017-07-21T08:13:58.118Z,68.94
2017-07-21T08:14:58.102Z,68.24
2017-07-21T08:15:58.127Z,69.80
2017-07-21T08:16:58.095Z,67.20
2017-07-21T08:17:58.123Z,68.81
2017-07-21T08:18:58.131Z,68.43
2017-07-21T08:19:58.136Z,70.35
2017-07-21T08:20:58.166Z,69.59
2017-07-21T08:21:58.089Z,69.85
2017-07-21T08:22:58.164Z,65.29
2017-07-21T08:23:58.070Z,66.84
2017-07-21T08:24:58.128Z,66.40
2017-07-21T08:25:58.145Z,71.47
2017-07-21T08:26:58.069Z,72.67
2017-07-21T08:27:58.058Z,67.13
2017-07-21T08:28:58.092Z,64.62
2017-07-21T08:29:58.122Z,64.62
2017-07-21T08:30:58.060Z,68.79
2017-07-21T08:31:58.091Z,63.54
2017-07-21T08:32:58.090Z,63.18
2017-07-21T08:33:58.094Z,65.60
2017-07-21T08:34:58.089Z,66.79
2017-07-21T08:35:58.084Z,65.01
2017-07-21T08:36:58.125Z,62.69
2017-07-21T08:37:58.069Z,63.38
2017-07-21T08:38:58.132Z,59.53
2017-07-21T08:39:58.073Z,61.33
2017-07-21T08:40:58.100Z,59.71
2017-07-21T08:41:58.098Z,60.37
2017-07-21T08:42:58.133Z,64.15
2017-07-21T08:43:58.065Z,66.40
2017-07-21T08:44:58.096Z,60.20
2017-07-21T08:45:58.072Z,60.99
2017-07-21T08:46:58.100Z,62.71
2017-07-21T08:47:58.169Z,60.01
2017-07-21T08:48:58.142Z,57.89
2017-07-21T08:49:58.085Z,61.30
2017-07-21T08:50:58.158Z,57.71
2017-07-21T08:51:58.120Z,57.92
2017-07-21T08:52:58.182Z,66.27
2017-07-21T08:53:58.084Z,58.07
2017-07-21T08:54:58.119Z,57.21
2017-07-21T08:55:58.160Z,57.13
2017-07-21T08:56:58.126Z,56.82
2017-07-21T08:57:58.085Z,59.84
2017-07-21T08:58:58.112Z,59.92
2017-07-21T08:59:58.108Z,60.05
2017-07-21T09:00:58.088Z,57.71
2017-07-21T09:01:58.090Z,56.16
2017-07-21T09:02:58.042Z,54.58
2017-07-21T09:03:58.152Z,58.43
2017-07-21T09:04:58.043Z,55.04
2017-07-21T09:05:58.058Z,55.65
2017-07-21T09:06:58.088Z,56.59
2017-07-21T09:07:58.126Z,61.25
2017-07-21T09:08:58.182Z,58.56
2017-07-21T09:09:58.089Z,59.02
2017-07-21T09:10:58.131Z,60.53
2017-07-21T09:11:58.107Z,61.56
2017-07-21T09:12:58.186Z,65.22
2017-07-21T09:13:58.102Z,60.61
2017-07-21T09:14:58.091Z,61.25
2017-07-21T09:15:58.093Z,60.01
2017-07-21T09:16:58.192Z,62.92
2017-07-21T09:17:58.257Z,58.25
2017-07-21T09:18:58.196Z,59.45
2017-07-21T09:19:58.135Z,67.18
2017-07-21T09:20:58.133Z,67.44
2017-07-21T09:21:58.103Z,59.99
2017-07-21T09:22:58.197Z,62.92
2017-07-21T09:23:58.132Z,62.69
2017-07-21T09:24:58.172Z,59.65
2017-07-21T09:25:58.127Z,56.65
2017-07-21T09:26:58.136Z,58.48
2017-07-21T09:27:58.111Z,63.49
2017-07-21T09:28:58.126Z,54.81
2017-07-21T09:29:58.144Z,56.52
2017-07-21T09:30:58.170Z,58.25
2017-07-21T09:31:58.108Z,55.88
2017-07-21T09:32:58.143Z,57.61
2017-07-21T09:33:58.139Z,57.38
2017-07-21T09:34:58.112Z,55.19
2017-07-21T09:35:58.142Z,58.43
2017-07-21T09:36:58.161Z,52.45
2017-07-21T09:37:59.313Z,54.73
2017-07-21T09:38:58.185Z,58.38
2017-07-21T09:39:58.141Z,55.83
2017-07-21T09:40:58.132Z,58.66
2017-07-21T09:41:58.150Z,56.80
2017-07-21T09:42:58.121Z,56.06
2017-07-21T09:43:58.243Z,56.80
2017-07-21T09:44:58.126Z,55.39
2017-07-21T09:45:58.152Z,55.27
2017-07-21T09:46:58.176Z,53.77
2017-07-21T09:47:58.139Z,55.27
2017-07-21T09:48:58.171Z,51.74
2017-07-21T09:49:58.122Z,55.57
2017-07-21T09:50:58.190Z,55.55
2017-07-21T09:51:58.209Z,52.35
2017-07-21T09:52:58.124Z,57.74
2017-07-21T09:53:58.123Z,53.06
2017-07-21T09:54:58.154Z,57.10
2017-07-21T09:55:58.147Z,54.91
2017-07-21T09:56:58.219Z,55.80
2017-07-21T09:57:58.052Z,57.41
2017-07-21T09:58:58.125Z,57.33
2017-07-21T09:59:58.050Z,57.33
2017-07-21T10:00:58.080Z,54.61
2017-07-21T10:01:58.119Z,56.90
2017-07-21T10:02:58.116Z,56.61
2017-07-21T10:03:58.108Z,55.60
2017-07-21T10:04:58.091Z,56.39
2017-07-21T10:05:58.037Z,60.40
2017-07-21T10:06:58.129Z,56.00
2017-07-21T10:07:58.265Z,57.82
2017-07-21T10:08:58.217Z,54.71
2017-07-21T10:09:58.132Z,53.36
2017-07-21T10:10:58.162Z,55.22
2017-07-21T10:11:58.193Z,51.41
2017-07-21T10:12:58.148Z,50.50
2017-07-21T10:13:58.130Z,52.40
2017-07-21T10:14:58.160Z,50.55
2017-07-21T10:15:58.135Z,53.31
2017-07-21T10:16:58.193Z,49.60
2017-07-21T10:17:58.204Z,52.83
2017-07-21T10:18:58.271Z,50.02
2017-07-21T10:19:58.157Z,54.23
2017-07-21T10:20:58.205Z,58.51
2017-07-21T10:21:58.232Z,52.85
2017-07-21T10:22:58.193Z,54.02
2017-07-21T10:23:58.192Z,49.22
2017-07-21T10:24:58.132Z,49.24
2017-07-21T10:25:58.142Z,50.66
2017-07-21T10:26:58.168Z,56.54
2017-07-21T10:27:58.160Z,60.66
2017-07-21T10:28:58.163Z,60.55
2017-07-21T10:29:58.194Z,55.57
2017-07-21T10:30:58.163Z,57.41
2017-07-21T10:31:58.136Z,54.41
2017-07-21T10:32:58.130Z,53.29
2017-07-21T10:33:58.199Z,51.13
2017-07-21T10:34:58.135Z,51.64
2017-07-21T10:35:58.131Z,51.77
2017-07-21T10:36:58.233Z,54.08
2017-07-21T10:37:58.175Z,53.67
2017-07-21T10:38:58.170Z,50.88
2017-07-21T10:39:58.180Z,52.90
2017-07-21T10:40:58.182Z,53.82
2017-07-21T10:41:58.173Z,54.41
2017-07-21T10:42:58.242Z,49.85
2017-07-21T10:43:58.225Z,50.93
2017-07-21T10:44:58.210Z,51.66
2017-07-21T10:45:58.175Z,50.35
2017-07-21T10:46:58.157Z,50.50
2017-07-21T10:47:58.137Z,49.64
2017-07-21T10:48:58.214Z,51.01
2017-07-21T10:49:58.205Z,54.48
2017-07-21T10:50:58.141Z,53.90
2017-07-21T10:51:58.178Z,45.05
2017-07-21T10:52:58.177Z,50.71
2017-07-21T10:53:58.176Z,44.20
2017-07-21T10:54:58.186Z,52.48
2017-07-21T10:55:58.145Z,48.23
2017-07-21T10:56:58.173Z,49.90
2017-07-21T10:57:58.209Z,47.48
2017-07-21T10:58:58.212Z,52.32
2017-07-21T10:59:58.148Z,50.35
2017-07-21T11:00:58.149Z,50.48
2017-07-21T11:01:58.149Z,50.58
2017-07-21T11:02:58.182Z,49.72
2017-07-21T11:03:58.218Z,52.37
2017-07-21T11:04:58.148Z,51.37
2017-07-21T11:05:58.186Z,50.22
2017-07-21T11:06:58.153Z,49.24
2017-07-21T11:07:58.181Z,47.96
2017-07-21T11:08:58.184Z,49.52
2017-07-21T11:09:58.223Z,49.32
2017-07-21T11:10:58.171Z,49.34
2017-07-21T11:11:58.230Z,51.24
2017-07-21T11:12:58.166Z,57.66
2017-07-21T11:13:58.161Z,56.39
2017-07-21T11:14:58.166Z,45.35
2017-07-21T11:15:58.140Z,46.70
2017-07-21T11:16:58.176Z,47.45
2017-07-21T11:17:58.158Z,48.51
2017-07-21T11:18:58.191Z,46.25
2017-07-21T11:19:58.227Z,47.51
2017-07-21T11:20:58.195Z,47.38
2017-07-21T11:21:58.161Z,50.18
2017-07-21T11:22:58.165Z,67.05
2017-07-21T11:23:58.163Z,51.19
2017-07-21T11:24:58.188Z,48.74
2017-07-21T11:25:58.196Z,44.17
2017-07-21T11:26:58.195Z,48.74
2017-07-21T11:27:58.175Z,43.77
2017-07-21T11:28:58.208Z,44.70
2017-07-21T11:29:58.172Z,46.50
2017-07-21T11:30:58.262Z,46.65
2017-07-21T11:31:58.268Z,43.33
2017-07-21T11:32:58.264Z,44.70
2017-07-21T11:33:58.208Z,45.07
2017-07-21T11:34:58.194Z,43.22
2017-07-21T11:35:58.237Z,48.46
2017-07-21T11:36:58.177Z,47.96
2017-07-21T11:37:58.128Z,45.27
2017-07-21T11:38:58.144Z,46.58
2017-07-21T11:39:58.157Z,53.44
2017-07-21T11:40:58.214Z,50.05
2017-07-21T11:41:58.194Z,49.12
2017-07-21T11:42:58.185Z,48.14
2017-07-21T11:43:58.189Z,50.71
2017-07-21T11:44:58.210Z,50.53
2017-07-21T11:45:58.209Z,49.67
2017-07-21T11:46:58.179Z,50.68
2017-07-21T11:47:58.171Z,50.43
2017-07-21T11:48:58.179Z,50.43
2017-07-21T11:49:58.234Z,52.20
2017-07-21T11:50:58.204Z,52.48
2017-07-21T11:51:58.238Z,54.08
2017-07-21T11:52:58.238Z,50.50
2017-07-21T11:53:58.211Z,53.44
2017-07-21T11:54:58.238Z,49.17
2017-07-21T11:55:58.207Z,51.51
2017-07-21T11:56:58.208Z,49.32
2017-07-21T11:57:58.210Z,50.30
2017-07-21T11:58:58.285Z,47.91
2017-07-21T11:59:58.230Z,55.30
2017-07-21T12:00:58.188Z,48.31
2017-07-21T12:01:58.281Z,47.08
2017-07-21T12:02:58.219Z,46.83
2017-07-21T12:03:58.191Z,48.06
2017-07-21T12:04:58.217Z,46.18
2017-07-21T12:05:58.246Z,58.17
2017-07-21T12:06:58.219Z,49.52
2017-07-21T12:07:58.255Z,46.02
2017-07-21T12:08:58.219Z,49.02
2017-07-21T12:09:58.271Z,46.32
2017-07-21T12:10:58.253Z,48.16
2017-07-21T12:11:58.229Z,43.72
2017-07-21T12:12:58.291Z,45.57
2017-07-21T12:13:58.233Z,44.95
2017-07-21T12:14:58.220Z,44.50
2017-07-21T12:15:58.225Z,43.38
2017-07-21T12:16:58.209Z,44.90
2017-07-21T12:17:58.288Z,47.00
2017-07-21T12:18:58.196Z,44.60
2017-07-21T12:19:58.261Z,46.18
2017-07-21T12:20:58.219Z,42.95
2017-07-21T12:21:58.259Z,42.20
2017-07-21T12:22:58.257Z,52.20
2017-07-21T12:23:58.285Z,46.75
2017-07-21T12:24:58.226Z,44.93
2017-07-21T12:25:58.202Z,44.30
2017-07-21T12:26:58.198Z,44.25
2017-07-21T12:27:58.197Z,45.37
2017-07-21T12:28:58.201Z,47.13
2017-07-21T12:29:58.277Z,51.01
2017-07-21T12:30:58.284Z,46.48
2017-07-21T12:31:58.267Z,45.62
2017-07-21T12:32:58.215Z,45.15
2017-07-21T12:33:58.246Z,47.26
2017-07-21T12:34:58.296Z,47.53
2017-07-21T12:35:58.280Z,44.25
2017-07-21T12:36:58.300Z,47.91
2017-07-21T12:37:58.272Z,43.92
2017-07-21T12:38:58.263Z,42.25
2017-07-21T12:39:58.236Z,43.27
2017-07-21T12:40:58.275Z,45.25
2017-07-21T12:41:58.267Z,43.40
2017-07-21T12:42:58.361Z,43.92
2017-07-21T12:43:58.241Z,45.37
2017-07-21T12:44:58.208Z,50.53
2017-07-21T12:45:58.265Z,56.18
2017-07-21T12:46:58.238Z,60.89
2017-07-21T12:47:58.236Z,42.25
2017-07-21T12:48:58.239Z,43.38
2017-07-21T12:49:58.237Z,41.15
2017-07-21T12:50:58.283Z,43.20
2017-07-21T12:51:58.243Z,42.03
2017-07-21T12:52:58.282Z,41.15
2017-07-21T12:53:58.197Z,44.27
2017-07-21T12:54:58.283Z,43.40